createdAt,value
2023-04-22T00:02:53.825Z,26.92
2023-04-22T00:07:55.481Z,27.90
2023-04-22T00:12:56.930Z,28.98
2023-04-22T00:17:59.082Z,25.17
2023-04-22T00:23:00.628Z,25.25
2023-04-22T00:28:02.079Z,27.77
2023-04-22T00:33:03.776Z,24.42
2023-04-22T00:38:05.372Z,22.27
2023-04-22T00:43:08.955Z,20.80
2023-04-22T00:48:10.585Z,20.98
2023-04-22T00:53:12.196Z,25.73
2023-04-22T00:58:14.193Z,23.50
2023-04-22T01:03:15.819Z,23.77
2023-04-22T01:08:17.568Z,24.73
2023-04-22T01:13:19.024Z,26.65
2023-04-22T01:18:20.641Z,25.15
2023-04-22T01:23:22.637Z,25.80
2023-04-22T01:28:24.609Z,25.90
2023-04-22T01:33:26.394Z,28.00
2023-04-22T01:38:28.879Z,26.92
2023-04-22T01:43:33.660Z,29.13
2023-04-22T01:48:35.967Z,28.95
2023-04-22T01:53:37.462Z,26.13
2023-04-22T01:58:40.437Z,30.42
2023-04-22T02:03:42.074Z,29.33
2023-04-22T02:08:43.637Z,31.52
2023-04-22T02:13:45.060Z,28.25
2023-04-22T02:18:46.476Z,35.70
2023-04-22T02:23:47.945Z,28.80
2023-04-22T02:28:49.390Z,32.35
2023-04-22T02:33:51.046Z,30.75
2023-04-22T02:38:52.464Z,25.67
2023-04-22T02:43:53.907Z,30.17
2023-04-22T02:48:55.519Z,27.75
2023-04-22T02:53:56.969Z,35.65
2023-04-22T02:58:58.402Z,33.85
2023-04-22T03:04:00.072Z,37.47
2023-04-22T03:09:01.898Z,30.98
2023-04-22T03:14:03.340Z,33.15
2023-04-22T03:19:04.787Z,31.88
2023-04-22T03:24:06.438Z,29.88
2023-04-22T03:29:07.910Z,25.85
2023-04-22T03:34:09.361Z,28.73
2023-04-22T03:39:10.798Z,33.75
2023-04-22T03:44:12.217Z,28.02
2023-04-22T03:49:13.686Z,29.75
2023-04-22T03:54:15.219Z,31.10
2023-04-22T03:59:18.073Z,23.80
2023-04-22T04:04:20.428Z,26.33
2023-04-22T04:09:22.128Z,26.25
2023-04-22T04:14:23.612Z,29.83
2023-04-22T04:19:25.125Z,31.00
2023-04-22T04:24:26.594Z,28.23
2023-04-22T04:29:28.090Z,27.95
2023-04-22T04:34:29.516Z,33.33
2023-04-22T04:39:31.056Z,36.60
2023-04-22T04:44:32.466Z,33.60
2023-04-22T04:49:39.813Z,36.72
2023-04-22T04:54:41.456Z,33.75
2023-04-22T04:59:42.893Z,32.90
2023-04-22T05:04:44.419Z,45.17
2023-04-22T05:09:45.930Z,30.33
2023-04-22T05:14:47.364Z,27.90
2023-04-22T05:19:48.880Z,34.25
2023-04-22T05:24:50.390Z,29.77
2023-04-22T05:29:51.815Z,32.22
2023-04-22T05:34:53.238Z,25.50
2023-04-22T05:39:54.813Z,24.60
2023-04-22T05:44:56.311Z,29.02
2023-04-22T05:49:57.747Z,25.92
2023-04-22T05:54:59.163Z,27.00
2023-04-22T06:00:00.842Z,28.10
2023-04-22T06:05:02.593Z,24.98
2023-04-22T06:10:05.627Z,22.27
2023-04-22T06:15:07.629Z,22.90
2023-04-22T06:20:09.428Z,25.92
2023-04-22T06:25:10.914Z,23.75
2023-04-22T06:30:12.628Z,25.75
2023-04-22T06:35:14.189Z,23.17
2023-04-22T06:40:15.731Z,29.70
2023-04-22T06:45:17.250Z,25.88
2023-04-22T06:50:18.741Z,26.08
2023-04-22T06:55:20.232Z,27.35
2023-04-22T07:00:21.696Z,23.40
2023-04-22T07:05:23.163Z,23.20
2023-04-22T07:10:24.569Z,23.27
2023-04-22T07:15:26.042Z,22.75
2023-04-22T07:20:27.501Z,23.55
2023-04-22T07:25:29.047Z,24.80
2023-04-22T07:30:30.762Z,25.83
2023-04-22T07:35:32.221Z,26.13
2023-04-22T07:40:33.632Z,21.27
2023-04-22T07:45:35.206Z,25.13
2023-04-22T07:50:38.593Z,23.25
2023-04-22T07:55:40.353Z,26.05
2023-04-22T08:00:42.110Z,25.38
2023-04-22T08:05:43.620Z,27.35
2023-04-22T08:10:45.044Z,27.02
2023-04-22T08:15:46.608Z,28.05
2023-04-22T08:20:48.074Z,21.98
2023-04-22T08:25:49.992Z,23.48
2023-04-22T08:30:51.434Z,23.42
2023-04-22T08:35:53.052Z,21.70
2023-04-22T08:40:57.014Z,23.98
2023-04-22T08:45:58.521Z,22.42
2023-04-22T08:51:00.526Z,22.60
2023-04-22T08:56:02.066Z,21.88
2023-04-22T09:01:03.789Z,19.42
2023-04-22T09:06:06.267Z,15.80
2023-04-22T09:11:07.730Z,15.90
2023-04-22T09:16:10.121Z,19.02
2023-04-22T09:21:11.679Z,14.07
2023-04-22T09:26:15.034Z,17.55
2023-04-22T09:31:16.568Z,12.45
2023-04-22T09:36:22.580Z,13.13
2023-04-22T09:41:31.555Z,11.93
2023-04-22T09:46:33.980Z,8.90
2023-04-22T09:51:35.557Z,7.07
2023-04-22T09:56:50.239Z,8.02
2023-04-22T10:02:07.163Z,11.45
2023-04-22T10:07:08.769Z,8.15
2023-04-22T10:12:11.285Z,10.52
2023-04-22T10:17:13.525Z,8.30
2023-04-22T10:22:15.331Z,8.57
2023-04-22T10:27:21.556Z,12.77
2023-04-22T10:32:22.933Z,8.20
2023-04-22T10:37:25.377Z,9.77
2023-04-22T10:42:28.528Z,8.50
2023-04-22T10:47:32.550Z,6.57
2023-04-22T10:52:34.035Z,7.70
2023-04-22T10:57:43.844Z,8.75
2023-04-22T11:02:46.533Z,9.15
2023-04-22T11:07:53.906Z,8.30
2023-04-22T11:12:55.715Z,9.70
2023-04-22T11:17:57.608Z,8.27
2023-04-22T11:22:59.731Z,7.75
2023-04-22T11:28:01.278Z,9.48
2023-04-22T11:33:02.849Z,8.10
2023-04-22T11:38:06.106Z,9.73
2023-04-22T11:43:08.890Z,9.27
2023-04-22T11:48:11.822Z,8.75
2023-04-22T11:53:18.430Z,7.78
2023-04-22T11:58:25.222Z,8.15
2023-04-22T12:03:28.918Z,8.65
2023-04-22T12:08:44.350Z,6.97
2023-04-22T12:13:46.724Z,9.25
2023-04-22T12:18:48.091Z,6.50
2023-04-22T12:23:59.378Z,11.50
2023-04-22T12:29:01.230Z,6.57
2023-04-22T12:34:02.815Z,7.47
2023-04-22T12:39:04.824Z,6.53
2023-04-22T12:44:06.305Z,6.78
2023-04-22T12:49:07.793Z,10.88
2023-04-22T12:54:10.646Z,8.00
2023-04-22T12:59:12.937Z,13.18
2023-04-22T13:04:14.475Z,8.43
2023-04-22T13:09:16.515Z,10.20
2023-04-22T13:14:18.523Z,7.43
2023-04-22T13:19:20.068Z,9.75
2023-04-22T13:24:21.526Z,8.93
2023-04-22T13:29:23.213Z,7.30
2023-04-22T13:34:24.719Z,6.97
2023-04-22T13:39:26.293Z,8.13
2023-04-22T13:44:27.721Z,6.78
2023-04-22T13:49:29.278Z,8.90
2023-04-22T13:54:31.230Z,7.75
2023-04-22T13:59:35.087Z,9.05
2023-04-22T14:04:36.602Z,7.60
2023-04-22T14:09:38.232Z,7.97
2023-04-22T14:14:40.015Z,7.30
2023-04-22T14:19:42.324Z,8.07
2023-04-22T14:24:43.977Z,7.93
2023-04-22T14:29:46.149Z,8.95
2023-04-22T14:34:48.017Z,10.00
2023-04-22T14:39:49.514Z,7.45
2023-04-22T14:44:51.093Z,6.38
2023-04-22T14:49:52.595Z,7.78
2023-04-22T14:54:54.090Z,7.32
2023-04-22T14:59:55.542Z,8.55
2023-04-22T15:04:56.971Z,7.07
2023-04-22T15:10:01.310Z,9.35
2023-04-22T15:15:02.901Z,8.52
2023-04-22T15:20:06.532Z,7.32
2023-04-22T15:25:10.746Z,9.15
2023-04-22T15:30:12.462Z,8.02
2023-04-22T15:35:14.271Z,7.35
2023-04-22T15:40:15.783Z,7.93
2023-04-22T15:45:17.254Z,10.07
2023-04-22T15:50:19.286Z,7.25
2023-04-22T15:55:21.058Z,13.10
2023-04-22T16:00:22.548Z,11.18
2023-04-22T16:05:25.196Z,9.68
2023-04-22T16:10:27.923Z,9.02
2023-04-22T16:15:29.406Z,9.20
2023-04-22T16:20:31.159Z,9.23
2023-04-22T16:25:32.638Z,8.07
2023-04-22T16:30:34.175Z,9.48
2023-04-22T16:35:35.833Z,10.02
2023-04-22T16:40:38.699Z,9.23
2023-04-22T16:45:40.492Z,8.02
2023-04-22T16:50:41.950Z,11.15
2023-04-22T16:55:43.467Z,11.30
2023-04-22T17:00:47.494Z,13.25
2023-04-22T17:05:49.297Z,11.88
2023-04-22T17:10:52.369Z,9.90
2023-04-22T17:15:53.835Z,12.38
2023-04-22T17:20:55.901Z,12.65
2023-04-22T17:25:57.347Z,13.32
2023-04-22T17:30:58.910Z,14.90
2023-04-22T17:36:00.674Z,11.30
2023-04-22T17:41:02.286Z,14.38
2023-04-22T17:46:03.756Z,15.02
2023-04-22T17:51:06.563Z,15.32
2023-04-22T17:56:08.916Z,20.25
2023-04-22T18:01:10.539Z,20.30
2023-04-22T18:06:12.008Z,17.30
2023-04-22T18:11:13.586Z,23.17
2023-04-22T18:16:15.078Z,20.98
2023-04-22T18:21:16.942Z,17.83
2023-04-22T18:26:18.360Z,18.83
2023-04-22T18:31:20.661Z,24.55
2023-04-22T18:36:22.406Z,22.08
2023-04-22T18:41:25.482Z,26.15
2023-04-22T18:46:27.037Z,22.17
2023-04-22T18:51:30.119Z,20.00
2023-04-22T18:56:32.935Z,21.88
2023-04-22T19:01:35.522Z,19.75
2023-04-22T19:06:37.002Z,23.30
2023-04-22T19:11:38.511Z,21.55
2023-04-22T19:16:40.312Z,26.10
2023-04-22T19:21:41.830Z,23.77
2023-04-22T19:26:43.461Z,23.35
2023-04-22T19:31:45.579Z,24.63
2023-04-22T19:36:47.030Z,25.92
2023-04-22T19:41:48.580Z,23.52
2023-04-22T19:46:50.383Z,30.35
2023-04-22T19:51:52.854Z,26.38
2023-04-22T19:56:54.948Z,29.73
2023-04-22T20:01:56.576Z,28.88
2023-04-22T20:07:00.785Z,26.92
2023-04-22T20:12:05.103Z,28.13
2023-04-22T20:17:07.381Z,32.13
2023-04-22T20:22:09.557Z,27.15
2023-04-22T20:27:11.697Z,32.05
2023-04-22T20:32:13.328Z,27.90
2023-04-22T20:37:19.841Z,33.38
2023-04-22T20:42:23.192Z,33.30
2023-04-22T20:47:25.030Z,32.97
2023-04-22T20:52:26.627Z,28.52
2023-04-22T20:57:28.324Z,33.00
2023-04-22T21:02:31.536Z,31.05
2023-04-22T21:07:34.649Z,30.52
2023-04-22T21:12:36.652Z,36.97
2023-04-22T21:17:41.557Z,38.50
2023-04-22T21:22:44.070Z,34.17
2023-04-22T21:27:46.128Z,39.80
2023-04-22T21:32:47.635Z,45.85
2023-04-22T21:37:49.094Z,38.47
2023-04-22T21:42:51.025Z,38.58
2023-04-22T21:47:52.438Z,35.80
2023-04-22T21:52:53.917Z,39.15
2023-04-22T21:57:55.613Z,39.22
2023-04-22T22:02:57.257Z,39.75
2023-04-22T22:07:58.751Z,41.55
2023-04-22T22:13:00.783Z,39.47
2023-04-22T22:18:04.137Z,42.17
2023-04-22T22:23:05.616Z,45.28
2023-04-22T22:28:07.047Z,42.55
2023-04-22T22:33:08.707Z,42.38
2023-04-22T22:38:10.298Z,37.80
2023-04-22T22:43:13.419Z,40.60
2023-04-22T22:48:14.900Z,42.90
2023-04-22T22:53:16.555Z,45.75
2023-04-22T22:58:17.964Z,43.33
2023-04-22T23:03:20.008Z,46.63
2023-04-22T23:08:21.811Z,44.25
2023-04-22T23:13:23.288Z,46.13
2023-04-22T23:18:26.753Z,54.40
2023-04-22T23:23:29.812Z,47.88
2023-04-22T23:28:31.462Z,44.72
2023-04-22T23:33:35.060Z,44.58
2023-04-22T23:38:36.516Z,45.97
2023-04-22T23:43:37.930Z,45.42
2023-04-22T23:48:39.511Z,45.22
2023-04-22T23:53:40.947Z,49.17
2023-04-22T23:58:42.777Z,41.75
